sensor_id;sensor_type;location;lat;lon;timestamp;P1;durP1;ratioP1;P2;durP2;ratioP2
47417;SDS011;61796;48.808;8.194;2022-09-24T00:01:35;5.22;;;1.90;;
47417;SDS011;61796;48.808;8.194;2022-09-24T00:03:17;5.70;;;1.63;;
47417;SDS011;61796;48.808;8.194;2022-09-24T00:05:00;4.32;;;1.92;;
47417;SDS011;61796;48.808;8.194;2022-09-24T00:06:42;4.45;;;2.03;;
47417;SDS011;61796;48.808;8.194;2022-09-24T00:08:27;5.00;;;2.17;;
47417;SDS011;61796;48.808;8.194;2022-09-24T00:10:08;4.38;;;1.80;;
47417;SDS011;61796;48.808;8.194;2022-09-24T00:11:50;5.25;;;1.77;;
47417;SDS011;61796;48.808;8.194;2022-09-24T00:13:32;10.32;;;1.48;;
47417;SDS011;61796;48.808;8.194;2022-09-24T00:15:15;5.40;;;1.80;;
47417;SDS011;61796;48.808;8.194;2022-09-24T00:16:57;2.88;;;1.38;;
47417;SDS011;61796;48.808;8.194;2022-09-24T00:18:39;2.85;;;1.58;;
47417;SDS011;61796;48.808;8.194;2022-09-24T00:22:02;3.97;;;1.83;;
47417;SDS011;61796;48.808;8.194;2022-09-24T00:23:48;3.53;;;1.55;;
47417;SDS011;61796;48.808;8.194;2022-09-24T00:25:31;3.63;;;1.17;;
47417;SDS011;61796;48.808;8.194;2022-09-24T00:27:14;5.47;;;1.70;;
47417;SDS011;61796;48.808;8.194;2022-09-24T00:28:56;2.38;;;1.30;;
47417;SDS011;61796;48.808;8.194;2022-09-24T00:30:39;6.38;;;1.58;;
47417;SDS011;61796;48.808;8.194;2022-09-24T00:32:22;2.95;;;1.40;;
47417;SDS011;61796;48.808;8.194;2022-09-24T00:34:04;4.07;;;2.03;;
47417;SDS011;61796;48.808;8.194;2022-09-24T00:35:45;3.70;;;1.48;;
47417;SDS011;61796;48.808;8.194;2022-09-24T00:37:27;4.55;;;1.00;;
47417;SDS011;61796;48.808;8.194;2022-09-24T00:39:11;3.70;;;1.30;;
47417;SDS011;61796;48.808;8.194;2022-09-24T00:40:53;4.38;;;1.83;;
47417;SDS011;61796;48.808;8.194;2022-09-24T00:42:35;4.15;;;1.23;;
47417;SDS011;61796;48.808;8.194;2022-09-24T00:46:34;2.90;;;1.30;;
47417;SDS011;61796;48.808;8.194;2022-09-24T00:48:20;2.92;;;1.25;;
47417;SDS011;61796;48.808;8.194;2022-09-24T00:51:55;4.93;;;0.88;;
47417;SDS011;61796;48.808;8.194;2022-09-24T00:55:21;2.40;;;1.27;;
47417;SDS011;61796;48.808;8.194;2022-09-24T00:57:04;2.88;;;1.30;;
47417;SDS011;61796;48.808;8.194;2022-09-24T00:58:46;3.20;;;1.20;;
47417;SDS011;61796;48.808;8.194;2022-09-24T01:00:30;5.28;;;1.23;;
47417;SDS011;61796;48.808;8.194;2022-09-24T01:02:12;4.10;;;1.33;;
47417;SDS011;61796;48.808;8.194;2022-09-24T01:03:55;2.00;;;0.80;;
47417;SDS011;61796;48.808;8.194;2022-09-24T01:05:38;4.30;;;1.70;;
47417;SDS011;61796;48.808;8.194;2022-09-24T01:07:19;6.75;;;1.15;;
47417;SDS011;61796;48.808;8.194;2022-09-24T01:09:01;2.13;;;1.20;;
47417;SDS011;61796;48.808;8.194;2022-09-24T01:10:49;2.53;;;1.23;;
47417;SDS011;61796;48.808;8.194;2022-09-24T01:12:59;6.18;;;1.20;;
47417;SDS011;61796;48.808;8.194;2022-09-24T01:14:52;4.75;;;1.27;;
47417;SDS011;61796;48.808;8.194;2022-09-24T01:16:44;6.22;;;0.90;;
47417;SDS011;61796;48.808;8.194;2022-09-24T01:18:32;4.22;;;1.40;;
47417;SDS011;61796;48.808;8.194;2022-09-24T01:20:24;2.78;;;0.80;;
47417;SDS011;61796;48.808;8.194;2022-09-24T01:22:25;1.98;;;0.95;;
47417;SDS011;61796;48.808;8.194;2022-09-24T01:24:23;2.50;;;0.90;;
47417;SDS011;61796;48.808;8.194;2022-09-24T01:26:21;2.08;;;1.35;;
47417;SDS011;61796;48.808;8.194;2022-09-24T01:28:20;13.45;;;1.15;;
47417;SDS011;61796;48.808;8.194;2022-09-24T01:30:12;3.88;;;0.88;;
47417;SDS011;61796;48.808;8.194;2022-09-24T01:31:55;2.78;;;1.17;;
47417;SDS011;61796;48.808;8.194;2022-09-24T01:33:41;3.05;;;0.93;;
47417;SDS011;61796;48.808;8.194;2022-09-24T01:35:27;1.77;;;0.98;;
47417;SDS011;61796;48.808;8.194;2022-09-24T01:37:12;6.00;;;1.00;;
47417;SDS011;61796;48.808;8.194;2022-09-24T01:38:57;2.72;;;1.00;;
47417;SDS011;61796;48.808;8.194;2022-09-24T01:40:41;1.92;;;0.80;;
47417;SDS011;61796;48.808;8.194;2022-09-24T01:42:26;3.53;;;1.02;;
47417;SDS011;61796;48.808;8.194;2022-09-24T01:44:10;4.35;;;1.23;;
47417;SDS011;61796;48.808;8.194;2022-09-24T01:45:54;4.13;;;0.80;;
47417;SDS011;61796;48.808;8.194;2022-09-24T01:47:37;1.67;;;0.98;;
47417;SDS011;61796;48.808;8.194;2022-09-24T01:49:20;3.65;;;0.70;;
47417;SDS011;61796;48.808;8.194;2022-09-24T01:51:04;2.20;;;1.00;;
47417;SDS011;61796;48.808;8.194;2022-09-24T01:52:51;1.75;;;0.50;;
47417;SDS011;61796;48.808;8.194;2022-09-24T01:54:36;1.23;;;0.65;;
47417;SDS011;61796;48.808;8.194;2022-09-24T01:56:23;1.90;;;0.77;;
47417;SDS011;61796;48.808;8.194;2022-09-24T01:58:09;1.85;;;1.13;;
47417;SDS011;61796;48.808;8.194;2022-09-24T01:59:55;2.33;;;0.85;;
47417;SDS011;61796;48.808;8.194;2022-09-24T02:01:41;3.33;;;0.77;;
47417;SDS011;61796;48.808;8.194;2022-09-24T02:03:27;2.60;;;0.73;;
47417;SDS011;61796;48.808;8.194;2022-09-24T02:05:12;2.67;;;1.20;;
47417;SDS011;61796;48.808;8.194;2022-09-24T02:06:58;2.15;;;1.15;;
47417;SDS011;61796;48.808;8.194;2022-09-24T02:08:44;6.47;;;0.80;;
47417;SDS011;61796;48.808;8.194;2022-09-24T02:10:27;1.38;;;0.65;;
47417;SDS011;61796;48.808;8.194;2022-09-24T02:12:16;1.48;;;0.85;;
47417;SDS011;61796;48.808;8.194;2022-09-24T02:14:03;1.58;;;0.77;;
47417;SDS011;61796;48.808;8.194;2022-09-24T02:15:49;3.63;;;1.38;;
47417;SDS011;61796;48.808;8.194;2022-09-24T02:17:36;2.67;;;1.33;;
47417;SDS011;61796;48.808;8.194;2022-09-24T02:19:23;3.47;;;0.63;;
47417;SDS011;61796;48.808;8.194;2022-09-24T02:21:09;1.63;;;0.55;;
47417;SDS011;61796;48.808;8.194;2022-09-24T02:22:54;1.65;;;0.60;;
47417;SDS011;61796;48.808;8.194;2022-09-24T02:24:39;2.35;;;0.63;;
47417;SDS011;61796;48.808;8.194;2022-09-24T02:26:25;0.77;;;0.40;;
47417;SDS011;61796;48.808;8.194;2022-09-24T02:28:07;1.92;;;0.43;;
47417;SDS011;61796;48.808;8.194;2022-09-24T02:29:49;1.10;;;0.50;;
47417;SDS011;61796;48.808;8.194;2022-09-24T02:31:32;2.00;;;0.57;;
47417;SDS011;61796;48.808;8.194;2022-09-24T02:33:18;1.55;;;0.70;;
47417;SDS011;61796;48.808;8.194;2022-09-24T02:35:02;1.60;;;0.77;;
47417;SDS011;61796;48.808;8.194;2022-09-24T02:36:46;1.15;;;0.73;;
47417;SDS011;61796;48.808;8.194;2022-09-24T02:38:29;3.40;;;0.95;;
47417;SDS011;61796;48.808;8.194;2022-09-24T02:40:12;1.42;;;0.60;;
47417;SDS011;61796;48.808;8.194;2022-09-24T02:41:55;1.48;;;0.55;;
47417;SDS011;61796;48.808;8.194;2022-09-24T02:43:39;1.05;;;0.40;;
47417;SDS011;61796;48.808;8.194;2022-09-24T02:45:21;1.30;;;0.60;;
47417;SDS011;61796;48.808;8.194;2022-09-24T02:47:03;0.93;;;0.40;;
47417;SDS011;61796;48.808;8.194;2022-09-24T02:48:47;2.95;;;0.75;;
47417;SDS011;61796;48.808;8.194;2022-09-24T02:50:28;4.57;;;0.60;;
47417;SDS011;61796;48.808;8.194;2022-09-24T02:52:10;1.63;;;0.65;;
47417;SDS011;61796;48.808;8.194;2022-09-24T02:53:52;2.55;;;0.65;;
47417;SDS011;61796;48.808;8.194;2022-09-24T02:55:34;0.68;;;0.45;;
47417;SDS011;61796;48.808;8.194;2022-09-24T02:57:15;2.75;;;0.90;;
47417;SDS011;61796;48.808;8.194;2022-09-24T02:58:57;1.45;;;0.45;;
47417;SDS011;61796;48.808;8.194;2022-09-24T03:02:21;7.53;;;0.80;;
47417;SDS011;61796;48.808;8.194;2022-09-24T03:05:46;1.80;;;0.60;;
47417;SDS011;61796;48.808;8.194;2022-09-24T03:07:28;1.17;;;0.50;;
47417;SDS011;61796;48.808;8.194;2022-09-24T03:09:10;1.60;;;0.68;;
47417;SDS011;61796;48.808;8.194;2022-09-24T03:10:52;2.00;;;0.60;;
47417;SDS011;61796;48.808;8.194;2022-09-24T03:12:34;1.38;;;0.45;;
47417;SDS011;61796;48.808;8.194;2022-09-24T03:14:16;1.10;;;0.47;;
47417;SDS011;61796;48.808;8.194;2022-09-24T03:15:58;1.40;;;0.60;;
47417;SDS011;61796;48.808;8.194;2022-09-24T03:17:40;1.70;;;0.50;;
47417;SDS011;61796;48.808;8.194;2022-09-24T03:19:23;1.10;;;0.40;;
47417;SDS011;61796;48.808;8.194;2022-09-24T03:21:06;1.23;;;0.65;;
47417;SDS011;61796;48.808;8.194;2022-09-24T03:22:50;1.30;;;0.50;;
47417;SDS011;61796;48.808;8.194;2022-09-24T03:24:32;2.90;;;0.57;;
47417;SDS011;61796;48.808;8.194;2022-09-24T03:26:13;0.80;;;0.30;;
47417;SDS011;61796;48.808;8.194;2022-09-24T03:27:56;3.03;;;0.65;;
47417;SDS011;61796;48.808;8.194;2022-09-24T03:29:37;2.90;;;0.52;;
47417;SDS011;61796;48.808;8.194;2022-09-24T03:31:19;2.33;;;0.60;;
47417;SDS011;61796;48.808;8.194;2022-09-24T03:33:01;0.88;;;0.57;;
47417;SDS011;61796;48.808;8.194;2022-09-24T03:36:26;1.27;;;0.60;;
47417;SDS011;61796;48.808;8.194;2022-09-24T03:38:08;1.10;;;0.55;;
47417;SDS011;61796;48.808;8.194;2022-09-24T03:39:50;2.67;;;0.60;;
47417;SDS011;61796;48.808;8.194;2022-09-24T03:41:31;1.70;;;0.50;;
47417;SDS011;61796;48.808;8.194;2022-09-24T03:44:56;1.05;;;0.40;;
47417;SDS011;61796;48.808;8.194;2022-09-24T03:46:38;1.80;;;0.88;;
47417;SDS011;61796;48.808;8.194;2022-09-24T03:48:20;1.33;;;0.70;;
47417;SDS011;61796;48.808;8.194;2022-09-24T03:50:05;1.05;;;0.45;;
47417;SDS011;61796;48.808;8.194;2022-09-24T03:51:47;1.55;;;0.40;;
47417;SDS011;61796;48.808;8.194;2022-09-24T03:53:29;2.80;;;0.60;;
47417;SDS011;61796;48.808;8.194;2022-09-24T03:55:11;0.55;;;0.30;;
47417;SDS011;61796;48.808;8.194;2022-09-24T03:56:52;1.52;;;0.50;;
47417;SDS011;61796;48.808;8.194;2022-09-24T03:58:35;0.93;;;0.28;;
47417;SDS011;61796;48.808;8.194;2022-09-24T04:00:17;4.55;;;0.60;;
47417;SDS011;61796;48.808;8.194;2022-09-24T04:01:59;2.53;;;0.30;;
47417;SDS011;61796;48.808;8.194;2022-09-24T04:03:40;0.95;;;0.43;;
47417;SDS011;61796;48.808;8.194;2022-09-24T04:05:23;0.88;;;0.38;;
47417;SDS011;61796;48.808;8.194;2022-09-24T04:07:05;0.50;;;0.32;;
47417;SDS011;61796;48.808;8.194;2022-09-24T04:08:47;1.83;;;0.70;;
47417;SDS011;61796;48.808;8.194;2022-09-24T04:10:29;0.65;;;0.30;;
47417;SDS011;61796;48.808;8.194;2022-09-24T04:12:10;4.75;;;0.52;;
47417;SDS011;61796;48.808;8.194;2022-09-24T04:13:52;1.83;;;0.47;;
47417;SDS011;61796;48.808;8.194;2022-09-24T04:15:34;1.88;;;0.43;;
47417;SDS011;61796;48.808;8.194;2022-09-24T04:17:16;1.10;;;0.35;;
47417;SDS011;61796;48.808;8.194;2022-09-24T04:18:57;0.95;;;0.40;;
47417;SDS011;61796;48.808;8.194;2022-09-24T04:20:41;1.50;;;0.60;;
47417;SDS011;61796;48.808;8.194;2022-09-24T04:22:22;0.32;;;0.20;;
47417;SDS011;61796;48.808;8.194;2022-09-24T04:24:04;1.15;;;0.45;;
47417;SDS011;61796;48.808;8.194;2022-09-24T04:25:46;1.35;;;0.38;;
47417;SDS011;61796;48.808;8.194;2022-09-24T04:27:28;11.60;;;0.73;;
47417;SDS011;61796;48.808;8.194;2022-09-24T04:29:09;2.08;;;0.45;;
47417;SDS011;61796;48.808;8.194;2022-09-24T04:30:51;1.27;;;0.25;;
47417;SDS011;61796;48.808;8.194;2022-09-24T04:32:33;0.68;;;0.40;;
47417;SDS011;61796;48.808;8.194;2022-09-24T04:34:15;1.17;;;0.47;;
47417;SDS011;61796;48.808;8.194;2022-09-24T04:35:58;1.48;;;0.50;;
47417;SDS011;61796;48.808;8.194;2022-09-24T04:37:40;4.15;;;0.50;;
47417;SDS011;61796;48.808;8.194;2022-09-24T04:39:21;1.88;;;0.43;;
47417;SDS011;61796;48.808;8.194;2022-09-24T04:41:04;1.27;;;0.98;;
47417;SDS011;61796;48.808;8.194;2022-09-24T04:42:47;1.73;;;0.60;;
47417;SDS011;61796;48.808;8.194;2022-09-24T04:46:11;0.73;;;0.17;;
47417;SDS011;61796;48.808;8.194;2022-09-24T04:47:53;2.38;;;0.30;;
47417;SDS011;61796;48.808;8.194;2022-09-24T04:49:35;1.05;;;0.60;;
47417;SDS011;61796;48.808;8.194;2022-09-24T04:51:18;1.60;;;0.30;;
47417;SDS011;61796;48.808;8.194;2022-09-24T04:53:00;0.98;;;0.40;;
47417;SDS011;61796;48.808;8.194;2022-09-24T04:54:42;3.63;;;0.47;;
47417;SDS011;61796;48.808;8.194;2022-09-24T04:56:25;0.93;;;0.28;;
47417;SDS011;61796;48.808;8.194;2022-09-24T04:58:06;1.65;;;0.30;;
47417;SDS011;61796;48.808;8.194;2022-09-24T04:59:48;0.98;;;0.40;;
47417;SDS011;61796;48.808;8.194;2022-09-24T05:01:30;2.15;;;0.38;;
47417;SDS011;61796;48.808;8.194;2022-09-24T05:03:12;0.98;;;0.20;;
47417;SDS011;61796;48.808;8.194;2022-09-24T05:04:54;4.03;;;0.70;;
47417;SDS011;61796;48.808;8.194;2022-09-24T05:06:37;2.67;;;0.50;;
47417;SDS011;61796;48.808;8.194;2022-09-24T05:08:19;0.85;;;0.30;;
47417;SDS011;61796;48.808;8.194;2022-09-24T05:10:01;3.83;;;0.65;;
47417;SDS011;61796;48.808;8.194;2022-09-24T05:11:42;0.75;;;0.30;;
47417;SDS011;61796;48.808;8.194;2022-09-24T05:13:24;0.43;;;0.22;;
47417;SDS011;61796;48.808;8.194;2022-09-24T05:15:06;0.55;;;0.25;;
47417;SDS011;61796;48.808;8.194;2022-09-24T05:16:48;1.02;;;0.30;;
47417;SDS011;61796;48.808;8.194;2022-09-24T05:18:30;2.03;;;0.17;;
47417;SDS011;61796;48.808;8.194;2022-09-24T05:20:12;1.23;;;0.10;;
47417;SDS011;61796;48.808;8.194;2022-09-24T05:21:56;0.98;;;0.28;;
47417;SDS011;61796;48.808;8.194;2022-09-24T05:23:38;0.40;;;0.15;;
47417;SDS011;61796;48.808;8.194;2022-09-24T05:25:20;1.15;;;0.30;;
47417;SDS011;61796;48.808;8.194;2022-09-24T05:27:02;0.65;;;0.30;;
47417;SDS011;61796;48.808;8.194;2022-09-24T05:28:44;0.75;;;0.35;;
47417;SDS011;61796;48.808;8.194;2022-09-24T05:30:26;0.70;;;0.20;;
47417;SDS011;61796;48.808;8.194;2022-09-24T05:32:08;0.60;;;0.22;;
47417;SDS011;61796;48.808;8.194;2022-09-24T05:33:50;4.57;;;0.38;;
47417;SDS011;61796;48.808;8.194;2022-09-24T05:35:32;0.98;;;0.30;;
47417;SDS011;61796;48.808;8.194;2022-09-24T05:37:15;1.13;;;0.20;;
47417;SDS011;61796;48.808;8.194;2022-09-24T05:38:57;1.02;;;0.20;;
47417;SDS011;61796;48.808;8.194;2022-09-24T05:40:39;0.95;;;0.30;;
47417;SDS011;61796;48.808;8.194;2022-09-24T05:42:22;0.47;;;0.28;;
47417;SDS011;61796;48.808;8.194;2022-09-24T05:44:04;0.68;;;0.35;;
47417;SDS011;61796;48.808;8.194;2022-09-24T05:45:46;1.27;;;0.30;;
47417;SDS011;61796;48.808;8.194;2022-09-24T05:47:28;0.75;;;0.30;;
47417;SDS011;61796;48.808;8.194;2022-09-24T05:49:10;0.47;;;0.22;;
47417;SDS011;61796;48.808;8.194;2022-09-24T05:50:52;0.68;;;0.55;;
47417;SDS011;61796;48.808;8.194;2022-09-24T05:52:35;0.40;;;0.20;;
47417;SDS011;61796;48.808;8.194;2022-09-24T05:54:17;1.55;;;0.40;;
47417;SDS011;61796;48.808;8.194;2022-09-24T05:55:59;2.58;;;0.20;;
47417;SDS011;61796;48.808;8.194;2022-09-24T05:59:23;0.30;;;0.10;;
47417;SDS011;61796;48.808;8.194;2022-09-24T06:01:05;2.72;;;0.30;;
47417;SDS011;61796;48.808;8.194;2022-09-24T06:02:46;1.67;;;0.40;;
47417;SDS011;61796;48.808;8.194;2022-09-24T06:04:28;0.30;;;0.10;;
47417;SDS011;61796;48.808;8.194;2022-09-24T06:06:10;2.00;;;0.43;;
47417;SDS011;61796;48.808;8.194;2022-09-24T06:07:53;0.40;;;0.10;;
47417;SDS011;61796;48.808;8.194;2022-09-24T06:09:35;0.65;;;0.10;;
47417;SDS011;61796;48.808;8.194;2022-09-24T06:11:17;3.08;;;0.40;;
47417;SDS011;61796;48.808;8.194;2022-09-24T06:12:58;0.90;;;0.10;;
47417;SDS011;61796;48.808;8.194;2022-09-24T06:14:40;0.70;;;0.22;;
47417;SDS011;61796;48.808;8.194;2022-09-24T06:16:22;0.77;;;0.30;;
47417;SDS011;61796;48.808;8.194;2022-09-24T06:18:04;0.47;;;0.10;;
47417;SDS011;61796;48.808;8.194;2022-09-24T06:19:46;0.50;;;0.10;;
47417;SDS011;61796;48.808;8.194;2022-09-24T06:21:28;0.32;;;0.20;;
47417;SDS011;61796;48.808;8.194;2022-09-24T06:23:11;0.30;;;0.10;;
47417;SDS011;61796;48.808;8.194;2022-09-24T06:24:53;1.58;;;0.28;;
47417;SDS011;61796;48.808;8.194;2022-09-24T06:26:35;1.17;;;0.20;;
47417;SDS011;61796;48.808;8.194;2022-09-24T06:28:16;0.30;;;0.15;;
47417;SDS011;61796;48.808;8.194;2022-09-24T06:29:58;0.32;;;0.10;;
47417;SDS011;61796;48.808;8.194;2022-09-24T06:31:40;1.67;;;0.10;;
47417;SDS011;61796;48.808;8.194;2022-09-24T06:33:22;3.05;;;0.30;;
47417;SDS011;61796;48.808;8.194;2022-09-24T06:35:04;2.78;;;0.60;;
47417;SDS011;61796;48.808;8.194;2022-09-24T06:36:46;0.80;;;0.40;;
47417;SDS011;61796;48.808;8.194;2022-09-24T06:38:29;0.85;;;0.25;;
47417;SDS011;61796;48.808;8.194;2022-09-24T06:40:11;0.50;;;0.25;;
47417;SDS011;61796;48.808;8.194;2022-09-24T06:41:53;1.98;;;0.55;;
47417;SDS011;61796;48.808;8.194;2022-09-24T06:43:35;2.50;;;0.32;;
47417;SDS011;61796;48.808;8.194;2022-09-24T06:45:17;0.60;;;0.30;;
47417;SDS011;61796;48.808;8.194;2022-09-24T06:48:40;5.25;;;0.40;;
47417;SDS011;61796;48.808;8.194;2022-09-24T06:50:23;0.50;;;0.20;;
47417;SDS011;61796;48.808;8.194;2022-09-24T06:52:06;0.65;;;0.10;;
47417;SDS011;61796;48.808;8.194;2022-09-24T06:53:50;0.75;;;0.20;;
47417;SDS011;61796;48.808;8.194;2022-09-24T06:55:32;1.05;;;0.20;;
47417;SDS011;61796;48.808;8.194;2022-09-24T06:57:14;0.80;;;0.20;;
47417;SDS011;61796;48.808;8.194;2022-09-24T06:58:56;2.35;;;0.22;;
47417;SDS011;61796;48.808;8.194;2022-09-24T07:00:38;0.73;;;0.35;;
47417;SDS011;61796;48.808;8.194;2022-09-24T07:02:20;1.27;;;0.20;;
47417;SDS011;61796;48.808;8.194;2022-09-24T07:04:02;2.58;;;0.10;;
47417;SDS011;61796;48.808;8.194;2022-09-24T07:05:44;0.65;;;0.30;;
47417;SDS011;61796;48.808;8.194;2022-09-24T07:07:26;1.13;;;0.32;;
47417;SDS011;61796;48.808;8.194;2022-09-24T07:09:09;0.20;;;0.10;;
47417;SDS011;61796;48.808;8.194;2022-09-24T07:10:51;3.60;;;0.70;;
47417;SDS011;61796;48.808;8.194;2022-09-24T07:12:33;0.55;;;0.20;;
47417;SDS011;61796;48.808;8.194;2022-09-24T07:14:15;0.93;;;0.25;;
47417;SDS011;61796;48.808;8.194;2022-09-24T07:15:57;0.68;;;0.20;;
47417;SDS011;61796;48.808;8.194;2022-09-24T07:17:39;0.68;;;0.20;;
47417;SDS011;61796;48.808;8.194;2022-09-24T07:19:21;1.67;;;0.22;;
47417;SDS011;61796;48.808;8.194;2022-09-24T07:22:44;0.75;;;0.20;;
47417;SDS011;61796;48.808;8.194;2022-09-24T07:24:27;1.92;;;0.40;;
47417;SDS011;61796;48.808;8.194;2022-09-24T07:26:09;0.47;;;0.10;;
47417;SDS011;61796;48.808;8.194;2022-09-24T07:27:51;1.75;;;0.45;;
47417;SDS011;61796;48.808;8.194;2022-09-24T07:29:33;1.17;;;0.30;;
47417;SDS011;61796;48.808;8.194;2022-09-24T07:32:56;2.50;;;0.25;;
47417;SDS011;61796;48.808;8.194;2022-09-24T07:34:39;0.68;;;0.20;;
47417;SDS011;61796;48.808;8.194;2022-09-24T07:36:20;0.77;;;0.20;;
47417;SDS011;61796;48.808;8.194;2022-09-24T07:38:03;0.63;;;0.30;;
47417;SDS011;61796;48.808;8.194;2022-09-24T07:39:47;1.08;;;0.40;;
47417;SDS011;61796;48.808;8.194;2022-09-24T07:41:29;0.32;;;0.10;;
47417;SDS011;61796;48.808;8.194;2022-09-24T07:43:11;1.02;;;0.30;;
47417;SDS011;61796;48.808;8.194;2022-09-24T07:44:52;3.88;;;0.20;;
47417;SDS011;61796;48.808;8.194;2022-09-24T07:46:34;0.98;;;0.20;;
47417;SDS011;61796;48.808;8.194;2022-09-24T07:49:58;0.45;;;0.15;;
47417;SDS011;61796;48.808;8.194;2022-09-24T07:51:40;0.73;;;0.28;;
47417;SDS011;61796;48.808;8.194;2022-09-24T07:53:22;0.55;;;0.22;;
47417;SDS011;61796;48.808;8.194;2022-09-24T07:55:06;1.95;;;0.10;;
47417;SDS011;61796;48.808;8.194;2022-09-24T07:56:48;0.40;;;0.17;;
47417;SDS011;61796;48.808;8.194;2022-09-24T07:58:30;2.13;;;0.30;;
47417;SDS011;61796;48.808;8.194;2022-09-24T08:00:12;1.77;;;0.20;;
47417;SDS011;61796;48.808;8.194;2022-09-24T08:01:55;0.30;;;0.20;;
47417;SDS011;61796;48.808;8.194;2022-09-24T08:03:37;0.93;;;0.20;;
47417;SDS011;61796;48.808;8.194;2022-09-24T08:05:19;0.90;;;0.22;;
47417;SDS011;61796;48.808;8.194;2022-09-24T08:07:00;4.82;;;0.50;;
47417;SDS011;61796;48.808;8.194;2022-09-24T08:08:42;1.25;;;0.22;;
47417;SDS011;61796;48.808;8.194;2022-09-24T08:10:26;0.60;;;0.30;;
47417;SDS011;61796;48.808;8.194;2022-09-24T08:12:08;1.30;;;0.38;;
47417;SDS011;61796;48.808;8.194;2022-09-24T08:13:50;2.00;;;0.88;;
47417;SDS011;61796;48.808;8.194;2022-09-24T08:15:32;0.85;;;0.20;;
47417;SDS011;61796;48.808;8.194;2022-09-24T08:17:14;1.35;;;0.10;;
47417;SDS011;61796;48.808;8.194;2022-09-24T08:18:56;0.75;;;0.20;;
47417;SDS011;61796;48.808;8.194;2022-09-24T08:20:37;0.15;;;0.10;;
47417;SDS011;61796;48.808;8.194;2022-09-24T08:22:19;0.38;;;0.17;;
47417;SDS011;61796;48.808;8.194;2022-09-24T08:24:01;0.70;;;0.30;;
47417;SDS011;61796;48.808;8.194;2022-09-24T08:25:44;0.63;;;0.25;;
47417;SDS011;61796;48.808;8.194;2022-09-24T08:27:26;0.75;;;0.20;;
47417;SDS011;61796;48.808;8.194;2022-09-24T08:29:08;0.45;;;0.20;;
47417;SDS011;61796;48.808;8.194;2022-09-24T08:30:50;4.35;;;1.30;;
47417;SDS011;61796;48.808;8.194;2022-09-24T08:32:32;8.80;;;3.08;;
47417;SDS011;61796;48.808;8.194;2022-09-24T08:34:14;5.07;;;3.67;;
47417;SDS011;61796;48.808;8.194;2022-09-24T08:35:55;4.68;;;2.50;;
47417;SDS011;61796;48.808;8.194;2022-09-24T08:37:39;4.82;;;2.80;;
47417;SDS011;61796;48.808;8.194;2022-09-24T08:39:21;5.00;;;2.25;;
47417;SDS011;61796;48.808;8.194;2022-09-24T08:41:07;7.47;;;3.00;;
47417;SDS011;61796;48.808;8.194;2022-09-24T08:43:05;5.57;;;2.50;;
47417;SDS011;61796;48.808;8.194;2022-09-24T08:44:56;4.47;;;2.55;;
47417;SDS011;61796;48.808;8.194;2022-09-24T08:46:41;5.00;;;2.97;;
47417;SDS011;61796;48.808;8.194;2022-09-24T08:48:29;14.23;;;3.53;;
47417;SDS011;61796;48.808;8.194;2022-09-24T08:50:17;7.25;;;3.70;;
47417;SDS011;61796;48.808;8.194;2022-09-24T08:52:02;7.72;;;3.40;;
47417;SDS011;61796;48.808;8.194;2022-09-24T08:53:52;5.53;;;3.42;;
47417;SDS011;61796;48.808;8.194;2022-09-24T08:55:38;5.45;;;3.58;;
47417;SDS011;61796;48.808;8.194;2022-09-24T08:57:23;9.18;;;4.35;;
47417;SDS011;61796;48.808;8.194;2022-09-24T08:59:09;5.88;;;3.42;;
47417;SDS011;61796;48.808;8.194;2022-09-24T09:01:00;5.90;;;3.65;;
47417;SDS011;61796;48.808;8.194;2022-09-24T09:02:50;7.75;;;3.60;;
47417;SDS011;61796;48.808;8.194;2022-09-24T09:04:39;7.95;;;4.13;;
47417;SDS011;61796;48.808;8.194;2022-09-24T09:06:41;6.60;;;3.90;;
47417;SDS011;61796;48.808;8.194;2022-09-24T09:08:36;7.13;;;3.85;;
47417;SDS011;61796;48.808;8.194;2022-09-24T09:10:44;6.15;;;4.07;;
47417;SDS011;61796;48.808;8.194;2022-09-24T09:12:29;9.80;;;4.13;;
47417;SDS011;61796;48.808;8.194;2022-09-24T09:14:15;4.70;;;3.15;;
47417;SDS011;61796;48.808;8.194;2022-09-24T09:16:00;6.43;;;4.40;;
47417;SDS011;61796;48.808;8.194;2022-09-24T09:17:46;8.75;;;3.88;;
47417;SDS011;61796;48.808;8.194;2022-09-24T09:19:32;7.53;;;3.88;;
47417;SDS011;61796;48.808;8.194;2022-09-24T09:21:16;5.50;;;3.10;;
47417;SDS011;61796;48.808;8.194;2022-09-24T09:23:04;4.93;;;2.90;;
47417;SDS011;61796;48.808;8.194;2022-09-24T09:24:53;6.82;;;3.20;;
47417;SDS011;61796;48.808;8.194;2022-09-24T09:26:45;5.57;;;2.95;;
47417;SDS011;61796;48.808;8.194;2022-09-24T09:28:31;4.53;;;2.35;;
47417;SDS011;61796;48.808;8.194;2022-09-24T09:30:14;6.45;;;2.63;;
47417;SDS011;61796;48.808;8.194;2022-09-24T09:32:01;5.50;;;3.00;;
47417;SDS011;61796;48.808;8.194;2022-09-24T09:33:52;8.07;;;2.75;;
47417;SDS011;61796;48.808;8.194;2022-09-24T09:35:47;6.38;;;2.10;;
47417;SDS011;61796;48.808;8.194;2022-09-24T09:37:36;5.35;;;2.53;;
47417;SDS011;61796;48.808;8.194;2022-09-24T09:39:27;4.80;;;2.55;;
47417;SDS011;61796;48.808;8.194;2022-09-24T09:41:15;5.63;;;2.75;;
47417;SDS011;61796;48.808;8.194;2022-09-24T09:43:00;4.40;;;2.78;;
47417;SDS011;61796;48.808;8.194;2022-09-24T09:44:44;4.18;;;2.65;;
47417;SDS011;61796;48.808;8.194;2022-09-24T09:46:27;4.75;;;2.67;;
47417;SDS011;61796;48.808;8.194;2022-09-24T09:48:14;4.72;;;2.63;;
47417;SDS011;61796;48.808;8.194;2022-09-24T09:49:57;3.70;;;2.20;;
47417;SDS011;61796;48.808;8.194;2022-09-24T09:51:45;4.13;;;2.30;;
47417;SDS011;61796;48.808;8.194;2022-09-24T09:53:29;5.28;;;2.25;;
47417;SDS011;61796;48.808;8.194;2022-09-24T09:57:01;3.75;;;1.73;;
47417;SDS011;61796;48.808;8.194;2022-09-24T09:58:44;4.60;;;2.53;;
47417;SDS011;61796;48.808;8.194;2022-09-24T10:02:18;3.45;;;1.88;;
47417;SDS011;61796;48.808;8.194;2022-09-24T10:04:04;7.03;;;1.88;;
47417;SDS011;61796;48.808;8.194;2022-09-24T10:06:04;5.18;;;3.20;;
47417;SDS011;61796;48.808;8.194;2022-09-24T10:07:48;4.72;;;2.22;;
47417;SDS011;61796;48.808;8.194;2022-09-24T10:09:31;4.00;;;2.08;;
47417;SDS011;61796;48.808;8.194;2022-09-24T10:11:14;2.92;;;1.88;;
47417;SDS011;61796;48.808;8.194;2022-09-24T10:13:08;3.70;;;1.83;;
47417;SDS011;61796;48.808;8.194;2022-09-24T10:14:57;3.67;;;1.90;;
47417;SDS011;61796;48.808;8.194;2022-09-24T10:16:43;4.07;;;2.30;;
47417;SDS011;61796;48.808;8.194;2022-09-24T10:18:30;4.53;;;2.22;;
47417;SDS011;61796;48.808;8.194;2022-09-24T10:20:17;4.35;;;2.05;;
47417;SDS011;61796;48.808;8.194;2022-09-24T10:22:06;6.05;;;2.55;;
47417;SDS011;61796;48.808;8.194;2022-09-24T10:25:16;4.50;;;2.17;;
47417;SDS011;61796;48.808;8.194;2022-09-24T10:27:21;3.30;;;1.70;;
47417;SDS011;61796;48.808;8.194;2022-09-24T10:29:31;4.93;;;2.05;;
47417;SDS011;61796;48.808;8.194;2022-09-24T10:31:34;4.72;;;2.15;;
47417;SDS011;61796;48.808;8.194;2022-09-24T10:33:39;5.32;;;2.25;;
47417;SDS011;61796;48.808;8.194;2022-09-24T10:35:42;3.42;;;2.10;;
47417;SDS011;61796;48.808;8.194;2022-09-24T10:37:48;3.97;;;2.13;;
47417;SDS011;61796;48.808;8.194;2022-09-24T10:39:57;3.80;;;2.03;;
47417;SDS011;61796;48.808;8.194;2022-09-24T10:42:01;4.15;;;2.17;;
47417;SDS011;61796;48.808;8.194;2022-09-24T10:44:04;6.15;;;2.30;;
47417;SDS011;61796;48.808;8.194;2022-09-24T10:46:15;2.80;;;1.80;;
47417;SDS011;61796;48.808;8.194;2022-09-24T10:48:42;3.40;;;1.60;;
47417;SDS011;61796;48.808;8.194;2022-09-24T10:50:45;3.30;;;1.90;;
47417;SDS011;61796;48.808;8.194;2022-09-24T10:52:52;2.58;;;1.55;;
47417;SDS011;61796;48.808;8.194;2022-09-24T10:54:59;3.17;;;2.20;;
47417;SDS011;61796;48.808;8.194;2022-09-24T10:57:11;2.50;;;1.70;;
47417;SDS011;61796;48.808;8.194;2022-09-24T10:59:26;3.78;;;1.98;;
47417;SDS011;61796;48.808;8.194;2022-09-24T11:01:39;3.00;;;1.88;;
47417;SDS011;61796;48.808;8.194;2022-09-24T11:06:00;4.30;;;1.95;;